createdAt,value
2023-02-11T00:01:54.579Z,36.47
2023-02-11T00:04:21.530Z,34.70
2023-02-11T00:06:48.358Z,39.00
2023-02-11T00:09:15.186Z,39.27
2023-02-11T00:11:42.092Z,38.80
2023-02-11T00:14:11.427Z,36.03
2023-02-11T00:16:38.271Z,36.43
2023-02-11T00:19:06.546Z,33.73
2023-02-11T00:21:34.073Z,37.77
2023-02-11T00:24:02.297Z,34.17
2023-02-11T00:26:33.104Z,34.30
2023-02-11T00:29:00.956Z,35.47
2023-02-11T00:31:28.283Z,37.03
2023-02-11T00:33:55.360Z,37.60
2023-02-11T00:36:26.582Z,42.30
2023-02-11T00:38:55.460Z,35.87
2023-02-11T00:41:23.199Z,37.57
2023-02-11T00:43:50.733Z,39.53
2023-02-11T00:46:17.604Z,36.73
2023-02-11T00:48:44.519Z,36.87
2023-02-11T00:51:11.423Z,32.30
2023-02-11T00:53:38.680Z,32.17
2023-02-11T00:56:06.419Z,31.50
2023-02-11T00:58:33.494Z,31.17
2023-02-11T01:01:00.348Z,32.13
2023-02-11T01:03:27.555Z,33.07
2023-02-11T01:05:54.370Z,28.80
2023-02-11T01:08:21.557Z,27.77
2023-02-11T01:11:13.633Z,34.30
2023-02-11T01:13:40.516Z,29.40
2023-02-11T01:16:09.862Z,26.43
2023-02-11T01:18:37.294Z,23.60
2023-02-11T01:21:04.807Z,26.43
2023-02-11T01:23:31.550Z,28.73
2023-02-11T01:25:58.610Z,24.90
2023-02-11T01:28:28.728Z,24.13
2023-02-11T01:30:56.556Z,25.33
2023-02-11T01:33:23.872Z,27.73
2023-02-11T01:35:51.339Z,29.00
2023-02-11T01:38:21.699Z,26.80
2023-02-11T01:40:57.245Z,28.23
2023-02-11T01:43:25.515Z,24.57
2023-02-11T01:46:12.490Z,29.07
2023-02-11T01:48:43.785Z,22.77
2023-02-11T01:51:20.481Z,23.00
2023-02-11T01:54:06.787Z,22.00
2023-02-11T01:56:55.919Z,21.33
2023-02-11T01:59:46.690Z,34.57
2023-02-11T02:02:16.515Z,22.03
2023-02-11T02:05:23.826Z,36.57
2023-02-11T02:07:56.091Z,30.20
2023-02-11T02:10:26.465Z,23.47
2023-02-11T02:12:53.963Z,35.33
2023-02-11T02:15:29.198Z,23.73
2023-02-11T02:18:03.232Z,22.37
2023-02-11T02:21:05.651Z,25.47
2023-02-11T02:23:38.908Z,30.10
2023-02-11T02:26:14.664Z,24.73
2023-02-11T02:29:21.859Z,22.97
2023-02-11T02:31:51.476Z,25.23
2023-02-11T02:34:35.276Z,22.03
2023-02-11T02:37:12.907Z,20.13
2023-02-11T02:39:40.599Z,22.93
2023-02-11T02:42:08.324Z,23.87
2023-02-11T02:44:35.183Z,19.07
2023-02-11T02:47:02.619Z,20.27
2023-02-11T02:49:31.104Z,20.33
2023-02-11T02:52:03.547Z,15.07
2023-02-11T02:54:33.304Z,18.93
2023-02-11T02:57:06.096Z,20.07
2023-02-11T02:59:50.870Z,27.07
2023-02-11T03:02:24.834Z,20.60
2023-02-11T03:05:15.696Z,19.80
2023-02-11T03:07:51.646Z,20.53
2023-02-11T03:10:33.046Z,28.60
2023-02-11T03:13:00.934Z,22.77
2023-02-11T03:15:31.667Z,21.07
2023-02-11T03:18:01.882Z,18.93
2023-02-11T03:20:32.959Z,25.10
2023-02-11T03:23:11.114Z,18.60
2023-02-11T03:25:50.558Z,21.20
2023-02-11T03:28:32.057Z,18.90
2023-02-11T03:31:18.718Z,20.33
2023-02-11T03:34:14.430Z,19.33
2023-02-11T03:37:19.764Z,17.93
2023-02-11T03:39:54.491Z,18.13
2023-02-11T03:42:23.495Z,20.10
2023-02-11T03:44:57.562Z,19.50
2023-02-11T03:47:27.846Z,17.70
2023-02-11T03:49:57.147Z,20.77
2023-02-11T03:52:25.522Z,20.73
2023-02-11T03:54:57.490Z,20.27
2023-02-11T03:57:24.556Z,21.77
2023-02-11T03:59:59.256Z,21.77
2023-02-11T04:02:30.237Z,22.57
2023-02-11T04:04:57.178Z,21.60
2023-02-11T04:07:24.042Z,17.33
2023-02-11T04:09:50.793Z,21.70
2023-02-11T04:12:17.541Z,21.30
2023-02-11T04:14:44.617Z,21.47
2023-02-11T04:17:12.549Z,19.67
2023-02-11T04:19:39.631Z,21.57
2023-02-11T04:22:06.839Z,24.17
2023-02-11T04:24:34.155Z,18.20
2023-02-11T04:27:01.145Z,20.53
2023-02-11T04:29:28.234Z,21.03
2023-02-11T04:31:55.401Z,23.43
2023-02-11T04:34:22.412Z,22.00
2023-02-11T04:36:49.190Z,19.80
2023-02-11T04:39:15.899Z,20.87
2023-02-11T04:41:42.756Z,20.53
2023-02-11T04:44:09.819Z,20.30
2023-02-11T04:46:36.786Z,23.83
2023-02-11T04:49:03.829Z,21.93
2023-02-11T04:51:30.766Z,21.43
2023-02-11T04:53:57.597Z,21.17
2023-02-11T04:56:24.421Z,20.20
2023-02-11T04:58:51.223Z,22.20
2023-02-11T05:01:18.028Z,22.27
2023-02-11T05:03:44.872Z,21.60
2023-02-11T05:06:12.791Z,19.30
2023-02-11T05:08:40.849Z,21.10
2023-02-11T05:11:08.464Z,20.17
2023-02-11T05:13:35.271Z,20.70
2023-02-11T05:16:02.086Z,18.90
2023-02-11T05:18:28.854Z,24.53
2023-02-11T05:20:55.707Z,19.40
2023-02-11T05:23:22.453Z,20.73
2023-02-11T05:25:49.551Z,18.27
2023-02-11T05:28:16.709Z,15.83
2023-02-11T05:30:43.595Z,17.17
2023-02-11T05:33:10.345Z,18.77
2023-02-11T05:35:37.118Z,18.63
2023-02-11T05:38:04.943Z,20.10
2023-02-11T05:40:31.776Z,20.33
2023-02-11T05:42:58.577Z,20.50
2023-02-11T05:45:25.424Z,19.13
2023-02-11T05:47:52.091Z,17.50
2023-02-11T05:50:20.040Z,18.50
2023-02-11T05:52:46.850Z,15.87
2023-02-11T05:55:14.197Z,15.47
2023-02-11T05:57:41.220Z,19.23
2023-02-11T06:00:09.093Z,18.90
2023-02-11T06:02:35.893Z,16.27
2023-02-11T06:05:02.718Z,17.10
2023-02-11T06:07:29.403Z,18.70
2023-02-11T06:09:56.203Z,18.47
2023-02-11T06:12:22.925Z,16.40
2023-02-11T06:14:49.565Z,19.90
2023-02-11T06:17:16.305Z,17.73
2023-02-11T06:19:43.016Z,24.37
2023-02-11T06:22:09.736Z,23.63
2023-02-11T06:24:59.914Z,23.43
2023-02-11T06:27:24.681Z,20.20
2023-02-11T06:29:52.755Z,22.30
2023-02-11T06:32:39.557Z,23.17
2023-02-11T06:35:06.952Z,26.03
2023-02-11T06:37:35.240Z,27.20
2023-02-11T06:40:02.361Z,19.40
2023-02-11T06:42:29.121Z,24.77
2023-02-11T06:44:55.777Z,21.40
2023-02-11T06:47:22.548Z,18.20
2023-02-11T06:49:49.289Z,22.27
2023-02-11T06:52:15.999Z,19.57
2023-02-11T06:54:42.708Z,18.23
2023-02-11T06:57:09.511Z,21.33
2023-02-11T06:59:36.297Z,18.27
2023-02-11T07:02:03.189Z,21.73
2023-02-11T07:04:30.022Z,31.90
2023-02-11T07:06:56.790Z,24.03
2023-02-11T07:09:23.460Z,26.13
2023-02-11T07:11:50.213Z,26.23
2023-02-11T07:14:16.996Z,19.17
2023-02-11T07:16:43.752Z,18.90
2023-02-11T07:19:10.830Z,21.13
2023-02-11T07:21:39.783Z,19.47
2023-02-11T07:24:11.164Z,23.00
2023-02-11T07:26:38.163Z,22.07
2023-02-11T07:29:04.875Z,18.43
2023-02-11T07:31:32.295Z,19.37
2023-02-11T07:34:02.744Z,21.57
2023-02-11T07:36:31.994Z,21.33
2023-02-11T07:39:01.195Z,22.17
2023-02-11T07:41:28.825Z,23.97
2023-02-11T07:43:56.221Z,18.50
2023-02-11T07:46:27.389Z,21.37
2023-02-11T07:48:55.031Z,23.47
2023-02-11T07:51:27.449Z,20.83
2023-02-11T07:53:57.203Z,19.17
2023-02-11T07:56:24.585Z,20.37
2023-02-11T07:58:51.589Z,18.10
2023-02-11T08:01:25.873Z,15.73
2023-02-11T08:03:53.242Z,18.20
2023-02-11T08:06:23.510Z,18.50
2023-02-11T08:08:50.528Z,18.73
2023-02-11T08:11:27.806Z,21.07
2023-02-11T08:13:57.141Z,20.40
2023-02-11T08:16:43.018Z,21.27
2023-02-11T08:19:13.785Z,18.97
2023-02-11T08:21:41.293Z,23.87
2023-02-11T08:24:08.481Z,20.10
2023-02-11T08:26:35.949Z,18.10
2023-02-11T08:29:06.900Z,18.17
2023-02-11T08:31:36.902Z,22.60
2023-02-11T08:34:04.191Z,26.27
2023-02-11T08:36:34.338Z,26.87
2023-02-11T08:39:18.120Z,19.57
2023-02-11T08:41:48.845Z,17.67
2023-02-11T08:44:16.679Z,18.27
2023-02-11T08:46:43.497Z,16.73
2023-02-11T08:49:10.377Z,15.03
2023-02-11T08:51:37.343Z,16.60
2023-02-11T08:54:04.351Z,16.77
2023-02-11T08:56:32.408Z,16.37
2023-02-11T08:58:59.305Z,15.97
2023-02-11T09:01:29.595Z,18.80
2023-02-11T09:03:57.773Z,17.73
2023-02-11T09:06:25.969Z,17.17
2023-02-11T09:08:56.002Z,19.53
2023-02-11T09:11:27.338Z,21.47
2023-02-11T09:13:56.256Z,24.90
2023-02-11T09:16:29.979Z,23.10
2023-02-11T09:18:58.486Z,17.50
2023-02-11T09:21:26.194Z,23.17
2023-02-11T09:23:53.119Z,23.90
2023-02-11T09:26:28.427Z,22.53
2023-02-11T09:28:56.281Z,28.30
2023-02-11T09:31:25.637Z,17.93
2023-02-11T09:33:55.196Z,16.93
2023-02-11T09:36:25.378Z,20.53
2023-02-11T09:38:53.317Z,18.03
2023-02-11T09:41:31.966Z,20.70
2023-02-11T09:44:02.912Z,36.90
2023-02-11T09:46:39.845Z,24.43
2023-02-11T09:49:08.319Z,28.93
2023-02-11T09:51:49.136Z,31.10
2023-02-11T09:54:37.343Z,22.27
2023-02-11T09:57:06.265Z,19.90
2023-02-11T09:59:33.195Z,22.20
2023-02-11T10:02:24.377Z,30.73
2023-02-11T10:05:29.066Z,33.00
2023-02-11T10:08:40.428Z,19.47
2023-02-11T10:11:32.084Z,19.47
2023-02-11T10:14:08.197Z,20.70
2023-02-11T10:16:55.802Z,21.73
2023-02-11T10:19:40.317Z,34.43
2023-02-11T10:22:14.737Z,32.77
2023-02-11T10:24:48.532Z,21.60
2023-02-11T10:27:19.952Z,30.37
2023-02-11T10:29:52.623Z,21.40
2023-02-11T10:32:35.270Z,24.37
2023-02-11T10:35:09.341Z,27.60
2023-02-11T10:37:39.280Z,22.23
2023-02-11T10:40:13.186Z,17.53
2023-02-11T10:42:46.152Z,23.57
2023-02-11T10:45:40.320Z,20.43
2023-02-11T10:48:35.899Z,32.43
2023-02-11T10:51:34.177Z,21.83
2023-02-11T10:54:03.908Z,19.73
2023-02-11T10:56:34.870Z,23.67
2023-02-11T10:59:07.265Z,19.03
2023-02-11T11:02:01.747Z,17.43
2023-02-11T11:04:44.955Z,17.03
2023-02-11T11:07:30.523Z,14.53
2023-02-11T11:10:00.221Z,13.43
2023-02-11T11:12:47.267Z,13.27
2023-02-11T11:15:20.073Z,13.77
2023-02-11T11:17:47.314Z,22.90
2023-02-11T11:20:24.502Z,17.53
2023-02-11T11:22:54.969Z,13.23
2023-02-11T11:25:26.891Z,13.97
2023-02-11T11:27:58.185Z,25.63
2023-02-11T11:30:32.922Z,15.37
2023-02-11T11:33:00.885Z,11.83
2023-02-11T11:35:32.942Z,9.77
2023-02-11T11:38:03.040Z,10.37
2023-02-11T11:40:32.629Z,11.83
2023-02-11T11:43:14.222Z,9.90
2023-02-11T11:45:59.316Z,13.63
2023-02-11T11:48:34.712Z,10.77
2023-02-11T11:51:04.436Z,9.83
2023-02-11T11:53:37.661Z,8.00
2023-02-11T11:56:09.345Z,10.33
2023-02-11T11:58:37.721Z,13.27
2023-02-11T12:01:31.227Z,11.53
2023-02-11T12:04:22.647Z,22.77
2023-02-11T12:06:52.386Z,11.17
2023-02-11T12:09:45.265Z,8.57
2023-02-11T12:12:32.748Z,9.40
2023-02-11T12:15:32.525Z,8.83
2023-02-11T12:18:47.734Z,7.03
2023-02-11T12:22:00.185Z,11.30
2023-02-11T12:24:29.377Z,9.70
2023-02-11T12:26:58.933Z,8.07
2023-02-11T12:29:30.704Z,13.53
2023-02-11T12:32:08.722Z,9.13
2023-02-11T12:35:01.491Z,10.70
2023-02-11T12:37:37.627Z,8.30
2023-02-11T12:40:04.504Z,9.07
2023-02-11T12:43:01.493Z,7.20
2023-02-11T12:45:41.385Z,8.70
2023-02-11T12:48:26.262Z,7.40
2023-02-11T12:51:14.412Z,8.17
2023-02-11T12:54:11.416Z,6.87
2023-02-11T12:56:59.261Z,8.03
2023-02-11T12:59:35.075Z,9.80
2023-02-11T13:02:12.117Z,6.93
2023-02-11T13:04:43.451Z,7.17
2023-02-11T13:07:27.991Z,6.10
2023-02-11T13:10:11.454Z,9.97
2023-02-11T13:12:57.497Z,9.53
2023-02-11T13:15:25.870Z,8.07
2023-02-11T13:18:18.022Z,8.03
2023-02-11T13:20:55.391Z,9.53
2023-02-11T13:23:37.253Z,9.20
2023-02-11T13:26:23.574Z,6.27
2023-02-11T13:29:13.088Z,19.30
2023-02-11T13:31:40.056Z,37.60
2023-02-11T13:34:46.520Z,7.57
2023-02-11T13:37:23.157Z,5.27
2023-02-11T13:40:02.804Z,7.47
2023-02-11T13:42:31.017Z,6.90
2023-02-11T13:44:58.436Z,3.70
2023-02-11T13:47:25.129Z,3.97
2023-02-11T13:49:54.332Z,3.90
2023-02-11T13:52:30.943Z,4.63
2023-02-11T13:55:05.579Z,2.27
2023-02-11T13:57:35.764Z,1.23
2023-02-11T14:00:27.666Z,1.50
2023-02-11T14:03:31.746Z,1.40
2023-02-11T14:06:26.522Z,1.30
2023-02-11T14:09:17.217Z,2.53
2023-02-11T14:12:14.688Z,1.83
2023-02-11T14:15:03.813Z,1.30
2023-02-11T14:17:33.943Z,1.30
2023-02-11T14:20:04.638Z,1.40
2023-02-11T14:22:44.570Z,1.87
2023-02-11T14:25:29.820Z,1.20
2023-02-11T14:28:06.679Z,1.47
2023-02-11T14:30:44.340Z,1.07
2023-02-11T14:33:19.462Z,1.30
2023-02-11T14:35:58.326Z,1.27
2023-02-11T14:38:48.365Z,1.30
2023-02-11T14:41:28.566Z,2.30
2023-02-11T14:43:59.447Z,1.40
2023-02-11T14:46:35.669Z,1.67
2023-02-11T14:49:05.189Z,2.20
2023-02-11T14:51:36.438Z,2.43
2023-02-11T14:54:25.175Z,2.00
2023-02-11T14:57:07.474Z,1.63
2023-02-11T14:59:34.442Z,1.63
2023-02-11T15:02:01.483Z,2.40
2023-02-11T15:04:31.829Z,1.50
2023-02-11T15:07:04.860Z,3.23
2023-02-11T15:09:40.087Z,2.10
2023-02-11T15:12:17.177Z,2.53
2023-02-11T15:14:48.681Z,1.77
2023-02-11T15:17:19.655Z,1.70
2023-02-11T15:19:49.894Z,2.07
2023-02-11T15:22:26.972Z,1.90
2023-02-11T15:25:10.746Z,0.83
2023-02-11T15:27:52.475Z,3.47
2023-02-11T15:30:22.423Z,2.17
2023-02-11T15:32:50.949Z,2.30
2023-02-11T15:35:18.415Z,3.57
2023-02-11T15:37:45.749Z,3.20
2023-02-11T15:40:22.790Z,2.83
2023-02-11T15:43:02.776Z,2.20
2023-02-11T15:45:37.123Z,3.07
2023-02-11T15:48:17.272Z,2.17
2023-02-11T15:50:59.923Z,2.53
2023-02-11T15:53:53.238Z,3.87
2023-02-11T15:56:25.562Z,3.40
2023-02-11T15:58:55.811Z,2.57
2023-02-11T16:01:33.069Z,2.10
2023-02-11T16:04:00.788Z,1.80
2023-02-11T16:06:36.937Z,2.10
2023-02-11T16:09:22.887Z,2.73
2023-02-11T16:11:49.550Z,1.70
2023-02-11T16:14:23.927Z,2.20
2023-02-11T16:16:53.160Z,2.07
2023-02-11T16:19:25.213Z,2.67
2023-02-11T16:21:54.017Z,2.77
2023-02-11T16:24:30.452Z,2.70
2023-02-11T16:27:00.381Z,2.23
2023-02-11T16:29:29.247Z,4.83
2023-02-11T16:32:10.443Z,4.60
2023-02-11T16:34:37.285Z,3.23
2023-02-11T16:37:06.031Z,3.85
2023-02-11T16:39:33.564Z,4.03
2023-02-11T16:42:00.850Z,3.83
2023-02-11T16:44:28.040Z,2.97
2023-02-11T16:46:55.642Z,3.17
2023-02-11T16:49:36.977Z,3.77
2023-02-11T16:52:07.679Z,11.23
2023-02-11T16:54:34.861Z,2.30
2023-02-11T16:57:05.871Z,3.90
2023-02-11T16:59:32.621Z,3.80
2023-02-11T17:01:59.491Z,2.83
2023-02-11T17:04:29.583Z,6.43
2023-02-11T17:06:58.330Z,3.00
2023-02-11T17:09:30.640Z,2.57
2023-02-11T17:11:58.045Z,2.30
2023-02-11T17:14:24.884Z,3.50
2023-02-11T17:16:51.654Z,2.83
2023-02-11T17:19:21.346Z,4.70
2023-02-11T17:21:50.799Z,2.93
2023-02-11T17:24:18.729Z,5.33
2023-02-11T17:26:46.937Z,3.47
2023-02-11T17:29:16.794Z,2.87
2023-02-11T17:31:45.310Z,2.77
2023-02-11T17:34:12.336Z,2.90
2023-02-11T17:36:41.306Z,2.83
2023-02-11T17:39:08.872Z,5.50
2023-02-11T17:41:37.991Z,3.63
2023-02-11T17:44:05.790Z,6.07
2023-02-11T17:46:33.875Z,3.30
2023-02-11T17:49:01.904Z,4.90
2023-02-11T17:51:39.466Z,6.40
2023-02-11T17:54:08.819Z,4.40
2023-02-11T17:56:36.650Z,4.60
2023-02-11T17:59:04.388Z,3.70
2023-02-11T18:01:33.244Z,4.97
2023-02-11T18:04:00.981Z,5.53
2023-02-11T18:06:29.105Z,3.63
2023-02-11T18:08:58.016Z,4.47
2023-02-11T18:11:25.992Z,6.37
2023-02-11T18:13:54.665Z,5.23
2023-02-11T18:16:23.130Z,9.03
2023-02-11T18:18:50.656Z,5.30
2023-02-11T18:21:22.024Z,4.97
2023-02-11T18:23:49.836Z,5.10
2023-02-11T18:26:19.277Z,5.10
2023-02-11T18:28:46.316Z,5.20
2023-02-11T18:31:14.127Z,8.90
2023-02-11T18:33:42.042Z,7.20
2023-02-11T18:36:13.790Z,5.97
2023-02-11T18:38:44.131Z,7.40
2023-02-11T18:41:11.489Z,6.63
2023-02-11T18:43:38.502Z,5.50
2023-02-11T18:46:11.166Z,8.17
2023-02-11T18:48:38.799Z,7.50
2023-02-11T18:51:10.658Z,6.00
2023-02-11T18:53:37.583Z,9.63
2023-02-11T18:56:14.692Z,6.53
2023-02-11T18:58:41.699Z,9.77
2023-02-11T19:01:20.924Z,7.23
2023-02-11T19:03:48.304Z,8.07
2023-02-11T19:06:19.742Z,6.30
2023-02-11T19:08:46.757Z,10.27
2023-02-11T19:11:16.197Z,8.47
2023-02-11T19:13:43.022Z,9.47
2023-02-11T19:16:16.705Z,10.20
2023-02-11T19:18:43.500Z,8.30
2023-02-11T19:21:11.517Z,10.63
2023-02-11T19:23:38.713Z,10.03
2023-02-11T19:26:06.455Z,9.53
2023-02-11T19:28:35.346Z,9.33
2023-02-11T19:31:09.379Z,12.13
2023-02-11T19:33:36.430Z,11.40
2023-02-11T19:36:05.489Z,12.10
2023-02-11T19:38:33.544Z,12.27
2023-02-11T19:41:00.514Z,11.50
2023-02-11T19:43:27.876Z,9.97
2023-02-11T19:45:56.623Z,9.80
2023-02-11T19:48:27.169Z,11.90
2023-02-11T19:50:54.588Z,10.90
2023-02-11T19:53:21.415Z,9.87
2023-02-11T19:55:48.647Z,11.07
2023-02-11T19:58:16.784Z,11.03
2023-02-11T20:00:43.690Z,14.57
2023-02-11T20:03:10.435Z,12.13
2023-02-11T20:05:42.291Z,15.63
2023-02-11T20:08:09.045Z,15.73
2023-02-11T20:10:35.821Z,15.27
2023-02-11T20:13:03.874Z,13.73
2023-02-11T20:15:30.742Z,12.20
2023-02-11T20:17:57.652Z,14.40
2023-02-11T20:20:24.491Z,17.27
2023-02-11T20:22:51.793Z,16.97
2023-02-11T20:25:18.500Z,14.23
2023-02-11T20:27:45.353Z,18.40
2023-02-11T20:30:13.164Z,15.57
2023-02-11T20:32:39.939Z,25.07
2023-02-11T20:35:08.922Z,18.43
2023-02-11T20:37:35.823Z,16.13
2023-02-11T20:40:02.600Z,19.20
2023-02-11T20:42:31.413Z,16.17
2023-02-11T20:44:58.234Z,14.60
2023-02-11T20:47:24.934Z,20.00
2023-02-11T20:49:54.358Z,20.47
2023-02-11T20:52:21.733Z,16.63
2023-02-11T20:54:48.407Z,17.57
2023-02-11T20:57:15.201Z,21.13
2023-02-11T20:59:41.956Z,18.83
2023-02-11T21:02:10.308Z,21.20
2023-02-11T21:04:39.027Z,21.83
2023-02-11T21:07:05.760Z,20.77
2023-02-11T21:09:33.614Z,22.50
2023-02-11T21:12:01.330Z,18.00
2023-02-11T21:14:29.127Z,24.97
2023-02-11T21:16:56.016Z,18.73
2023-02-11T21:19:22.755Z,19.50
2023-02-11T21:21:49.690Z,17.00
2023-02-11T21:24:16.563Z,17.63
2023-02-11T21:26:46.404Z,17.40
2023-02-11T21:29:13.289Z,17.57
2023-02-11T21:31:40.480Z,18.97
2023-02-11T21:34:07.865Z,14.90
2023-02-11T21:36:34.899Z,15.57
2023-02-11T21:39:03.743Z,15.87
2023-02-11T21:41:31.110Z,16.57
2023-02-11T21:43:57.914Z,18.50
2023-02-11T21:46:24.844Z,15.93
2023-02-11T21:48:52.212Z,13.13
2023-02-11T21:51:22.718Z,17.47
2023-02-11T21:53:57.084Z,15.70
2023-02-11T21:56:26.392Z,18.47
2023-02-11T21:58:54.440Z,14.33
2023-02-11T22:01:27.407Z,14.17
2023-02-11T22:03:54.127Z,13.10
2023-02-11T22:06:26.850Z,13.07
2023-02-11T22:08:54.461Z,15.67
2023-02-11T22:11:21.766Z,16.37
2023-02-11T22:13:52.390Z,14.33
2023-02-11T22:16:19.157Z,14.57
2023-02-11T22:18:46.485Z,15.07
2023-02-11T22:21:18.625Z,15.60
2023-02-11T22:23:46.029Z,15.33
2023-02-11T22:26:19.157Z,14.93
2023-02-11T22:28:47.711Z,14.40
2023-02-11T22:31:19.487Z,15.07
2023-02-11T22:33:46.780Z,14.50
2023-02-11T22:36:20.507Z,15.23
2023-02-11T22:38:47.655Z,14.67
2023-02-11T22:41:15.044Z,14.97
2023-02-11T22:43:42.563Z,14.10
2023-02-11T22:46:11.456Z,16.47
2023-02-11T22:48:38.233Z,18.27
2023-02-11T22:51:10.641Z,13.07
2023-02-11T22:53:37.831Z,16.10
2023-02-11T22:56:15.054Z,15.60
2023-02-11T22:58:42.459Z,14.03
2023-02-11T23:01:09.480Z,15.90
2023-02-11T23:03:36.544Z,14.43
2023-02-11T23:06:03.502Z,14.67
2023-02-11T23:08:31.281Z,18.63
2023-02-11T23:11:11.982Z,21.70
2023-02-11T23:13:40.493Z,35.00
2023-02-11T23:16:09.827Z,50.90
2023-02-11T23:18:38.623Z,30.10
2023-02-11T23:21:12.594Z,25.93
2023-02-11T23:23:39.862Z,19.40
2023-02-11T23:26:11.006Z,19.77
2023-02-11T23:28:38.654Z,61.13
2023-02-11T23:31:14.990Z,46.80
2023-02-11T23:33:41.854Z,48.40
2023-02-11T23:36:09.113Z,39.43
2023-02-11T23:38:35.923Z,44.10
2023-02-11T23:41:02.696Z,37.00
2023-02-11T23:43:29.743Z,29.97
2023-02-11T23:45:56.972Z,28.33
2023-02-11T23:48:24.081Z,24.63
2023-02-11T23:50:51.275Z,27.93
2023-02-11T23:53:18.061Z,27.73
2023-02-11T23:55:46.183Z,27.50
2023-02-11T23:58:16.457Z,27.37
